sensor_id;sensor_type;location;lat;lon;timestamp;pressure;altitude;pressure_sealevel;temperature;humidity
29505;BME280;16452;54.174;12.092;2022-08-24T00:01:21;101938.69;;;23.72;77.93
29505;BME280;16452;54.174;12.092;2022-08-24T00:03:47;101935.63;;;23.67;78.57
29505;BME280;16452;54.174;12.092;2022-08-24T00:06:18;101931.88;;;23.89;77.93
29505;BME280;16452;54.174;12.092;2022-08-24T00:08:46;101927.63;;;23.77;78.36
29505;BME280;16452;54.174;12.092;2022-08-24T00:11:12;101922.13;;;23.59;78.86
29505;BME280;16452;54.174;12.092;2022-08-24T00:13:38;101925.81;;;23.37;79.81
29505;BME280;16452;54.174;12.092;2022-08-24T00:16:06;101922.50;;;23.45;80.12
29505;BME280;16452;54.174;12.092;2022-08-24T00:18:32;101921.41;;;23.17;81.21
29505;BME280;16452;54.174;12.092;2022-08-24T00:20:59;101925.25;;;23.33;81.10
29505;BME280;16452;54.174;12.092;2022-08-24T00:23:24;101925.28;;;23.13;81.37
29505;BME280;16452;54.174;12.092;2022-08-24T00:25:50;101928.47;;;23.07;82.08
29505;BME280;16452;54.174;12.092;2022-08-24T00:28:16;101928.84;;;23.23;81.80
29505;BME280;16452;54.174;12.092;2022-08-24T00:30:42;101933.97;;;23.15;81.60
29505;BME280;16452;54.174;12.092;2022-08-24T00:33:08;101934.31;;;23.21;81.86
29505;BME280;16452;54.174;12.092;2022-08-24T00:35:34;101936.56;;;23.26;81.41
29505;BME280;16452;54.174;12.092;2022-08-24T00:38:01;101931.09;;;23.27;81.60
29505;BME280;16452;54.174;12.092;2022-08-24T00:40:38;101935.91;;;23.43;81.77
29505;BME280;16452;54.174;12.092;2022-08-24T00:43:07;101936.69;;;23.24;82.91
29505;BME280;16452;54.174;12.092;2022-08-24T00:45:41;101935.81;;;23.14;83.21
29505;BME280;16452;54.174;12.092;2022-08-24T00:48:15;101926.75;;;23.26;83.31
29505;BME280;16452;54.174;12.092;2022-08-24T00:51:08;101937.94;;;23.20;83.36
29505;BME280;16452;54.174;12.092;2022-08-24T00:53:45;101941.59;;;22.99;84.93
29505;BME280;16452;54.174;12.092;2022-08-24T00:56:20;101941.31;;;23.02;85.40
29505;BME280;16452;54.174;12.092;2022-08-24T00:59:00;101932.25;;;23.04;85.21
29505;BME280;16452;54.174;12.092;2022-08-24T01:01:28;101941.91;;;22.84;85.45
29505;BME280;16452;54.174;12.092;2022-08-24T01:03:56;101939.09;;;22.76;86.30
29505;BME280;16452;54.174;12.092;2022-08-24T01:06:23;101936.28;;;22.99;85.38
29505;BME280;16452;54.174;12.092;2022-08-24T01:08:49;101938.53;;;22.62;86.89
29505;BME280;16452;54.174;12.092;2022-08-24T01:11:19;101937.13;;;22.78;86.32
29505;BME280;16452;54.174;12.092;2022-08-24T01:13:48;101931.09;;;22.97;85.88
29505;BME280;16452;54.174;12.092;2022-08-24T01:16:15;101931.00;;;23.08;85.14
29505;BME280;16452;54.174;12.092;2022-08-24T01:19:31;101929.28;;;23.28;84.09
29505;BME280;16452;54.174;12.092;2022-08-24T01:24:55;101931.72;;;22.89;85.49
29505;BME280;16452;54.174;12.092;2022-08-24T01:27:20;101920.22;;;22.79;85.80
29505;BME280;16452;54.174;12.092;2022-08-24T01:29:48;101922.78;;;23.11;85.08
29505;BME280;16452;54.174;12.092;2022-08-24T01:32:14;101931.28;;;23.05;85.77
29505;BME280;16452;54.174;12.092;2022-08-24T01:34:40;101932.38;;;23.03;85.78
29505;BME280;16452;54.174;12.092;2022-08-24T01:37:09;101927.16;;;23.22;85.42
29505;BME280;16452;54.174;12.092;2022-08-24T01:39:40;101933.75;;;22.97;86.46
29505;BME280;16452;54.174;12.092;2022-08-24T01:42:07;101930.66;;;22.92;86.40
29505;BME280;16452;54.174;12.092;2022-08-24T01:44:35;101929.59;;;23.04;86.20
29505;BME280;16452;54.174;12.092;2022-08-24T01:47:04;101930.16;;;23.08;86.00
29505;BME280;16452;54.174;12.092;2022-08-24T01:49:33;101932.13;;;23.06;85.51
29505;BME280;16452;54.174;12.092;2022-08-24T01:52:02;101928.84;;;22.92;86.51
29505;BME280;16452;54.174;12.092;2022-08-24T01:54:31;101930.84;;;23.00;85.97
29505;BME280;16452;54.174;12.092;2022-08-24T01:56:58;101935.03;;;23.03;85.98
29505;BME280;16452;54.174;12.092;2022-08-24T01:59:25;101931.50;;;22.92;86.01
29505;BME280;16452;54.174;12.092;2022-08-24T02:01:56;101933.25;;;22.82;86.58
29505;BME280;16452;54.174;12.092;2022-08-24T02:04:23;101932.53;;;22.80;86.39
29505;BME280;16452;54.174;12.092;2022-08-24T02:06:49;101935.31;;;22.79;85.99
29505;BME280;16452;54.174;12.092;2022-08-24T02:09:15;101935.56;;;22.97;85.17
29505;BME280;16452;54.174;12.092;2022-08-24T02:11:41;101933.09;;;22.84;86.33
29505;BME280;16452;54.174;12.092;2022-08-24T02:14:07;101941.44;;;22.59;87.03
29505;BME280;16452;54.174;12.092;2022-08-24T02:16:33;101951.75;;;22.52;87.33
29505;BME280;16452;54.174;12.092;2022-08-24T02:18:59;101945.84;;;22.69;86.72
29505;BME280;16452;54.174;12.092;2022-08-24T02:21:25;101953.63;;;22.61;87.06
29505;BME280;16452;54.174;12.092;2022-08-24T02:23:51;101947.66;;;22.69;87.21
29505;BME280;16452;54.174;12.092;2022-08-24T02:26:17;101950.03;;;22.30;89.07
29505;BME280;16452;54.174;12.092;2022-08-24T02:28:43;101933.59;;;22.57;87.63
29505;BME280;16452;54.174;12.092;2022-08-24T02:31:13;101944.78;;;22.72;86.63
29505;BME280;16452;54.174;12.092;2022-08-24T02:33:39;101942.53;;;22.56;87.00
29505;BME280;16452;54.174;12.092;2022-08-24T02:36:06;101950.38;;;22.58;87.46
29505;BME280;16452;54.174;12.092;2022-08-24T02:38:33;101938.63;;;22.39;88.64
29505;BME280;16452;54.174;12.092;2022-08-24T02:40:59;101944.69;;;22.62;87.49
29505;BME280;16452;54.174;12.092;2022-08-24T02:43:26;101942.41;;;22.26;89.00
29505;BME280;16452;54.174;12.092;2022-08-24T02:45:52;101945.38;;;22.11;90.39
29505;BME280;16452;54.174;12.092;2022-08-24T02:48:18;101951.03;;;22.18;90.03
29505;BME280;16452;54.174;12.092;2022-08-24T02:50:48;101948.38;;;22.50;88.06
29505;BME280;16452;54.174;12.092;2022-08-24T02:53:18;101953.72;;;22.39;89.00
29505;BME280;16452;54.174;12.092;2022-08-24T02:55:45;101952.06;;;21.95;90.50
29505;BME280;16452;54.174;12.092;2022-08-24T02:58:13;101955.88;;;22.02;91.80
29505;BME280;16452;54.174;12.092;2022-08-24T03:00:42;101952.38;;;22.13;91.17
29505;BME280;16452;54.174;12.092;2022-08-24T03:03:09;101944.53;;;22.11;91.32
29505;BME280;16452;54.174;12.092;2022-08-24T03:05:36;101956.09;;;22.21;90.60
29505;BME280;16452;54.174;12.092;2022-08-24T03:08:02;101952.19;;;22.36;89.56
29505;BME280;16452;54.174;12.092;2022-08-24T03:10:28;101952.75;;;22.08;91.48
29505;BME280;16452;54.174;12.092;2022-08-24T03:12:55;101947.44;;;22.08;92.14
29505;BME280;16452;54.174;12.092;2022-08-24T03:15:21;101947.81;;;22.03;91.86
29505;BME280;16452;54.174;12.092;2022-08-24T03:17:47;101945.50;;;22.10;91.93
29505;BME280;16452;54.174;12.092;2022-08-24T03:20:17;101951.78;;;22.41;90.19
29505;BME280;16452;54.174;12.092;2022-08-24T03:22:44;101947.16;;;22.22;90.94
29505;BME280;16452;54.174;12.092;2022-08-24T03:25:11;101949.78;;;22.33;90.00
29505;BME280;16452;54.174;12.092;2022-08-24T03:27:38;101947.94;;;22.13;90.59
29505;BME280;16452;54.174;12.092;2022-08-24T03:30:08;101960.31;;;22.24;90.76
29505;BME280;16452;54.174;12.092;2022-08-24T03:32:38;101959.69;;;22.20;90.79
29505;BME280;16452;54.174;12.092;2022-08-24T03:35:05;101957.81;;;22.43;89.71
29505;BME280;16452;54.174;12.092;2022-08-24T03:37:31;101959.09;;;22.28;90.20
29505;BME280;16452;54.174;12.092;2022-08-24T03:39:57;101962.13;;;22.23;91.12
29505;BME280;16452;54.174;12.092;2022-08-24T03:42:23;101951.69;;;22.31;90.33
29505;BME280;16452;54.174;12.092;2022-08-24T03:44:49;101955.94;;;22.34;90.09
29505;BME280;16452;54.174;12.092;2022-08-24T03:47:15;101958.34;;;22.26;90.16
29505;BME280;16452;54.174;12.092;2022-08-24T03:49:44;101961.00;;;22.58;89.60
29505;BME280;16452;54.174;12.092;2022-08-24T03:52:10;101964.34;;;22.39;89.26
29505;BME280;16452;54.174;12.092;2022-08-24T03:54:36;101965.25;;;22.28;89.93
29505;BME280;16452;54.174;12.092;2022-08-24T03:57:02;101961.09;;;22.03;90.87
29505;BME280;16452;54.174;12.092;2022-08-24T03:59:27;101972.66;;;22.02;91.33
29505;BME280;16452;54.174;12.092;2022-08-24T04:01:54;101970.78;;;22.25;90.45
29505;BME280;16452;54.174;12.092;2022-08-24T04:04:21;101964.06;;;22.21;90.16
29505;BME280;16452;54.174;12.092;2022-08-24T04:06:47;101963.84;;;22.02;90.94
29505;BME280;16452;54.174;12.092;2022-08-24T04:09:14;101963.34;;;22.08;90.33
29505;BME280;16452;54.174;12.092;2022-08-24T04:11:40;101963.53;;;21.95;91.74
29505;BME280;16452;54.174;12.092;2022-08-24T04:14:09;101968.16;;;22.14;90.91
29505;BME280;16452;54.174;12.092;2022-08-24T04:16:35;101970.31;;;22.20;90.18
29505;BME280;16452;54.174;12.092;2022-08-24T04:19:01;101966.25;;;22.16;90.31
29505;BME280;16452;54.174;12.092;2022-08-24T04:21:33;101973.91;;;22.41;89.33
29505;BME280;16452;54.174;12.092;2022-08-24T04:23:59;101970.94;;;22.24;90.02
29505;BME280;16452;54.174;12.092;2022-08-24T04:26:28;101971.09;;;22.11;91.03
29505;BME280;16452;54.174;12.092;2022-08-24T04:28:55;101974.97;;;22.07;91.26
29505;BME280;16452;54.174;12.092;2022-08-24T04:31:21;101967.34;;;22.02;91.77
29505;BME280;16452;54.174;12.092;2022-08-24T04:33:49;101976.50;;;22.09;91.95
29505;BME280;16452;54.174;12.092;2022-08-24T04:36:18;101978.66;;;22.16;92.25
29505;BME280;16452;54.174;12.092;2022-08-24T04:38:45;101983.56;;;22.31;91.07
29505;BME280;16452;54.174;12.092;2022-08-24T04:41:14;101982.09;;;22.38;90.82
29505;BME280;16452;54.174;12.092;2022-08-24T04:43:41;101979.75;;;22.24;91.91
29505;BME280;16452;54.174;12.092;2022-08-24T04:46:11;101978.75;;;22.57;90.58
29505;BME280;16452;54.174;12.092;2022-08-24T04:48:40;101982.72;;;22.42;91.24
29505;BME280;16452;54.174;12.092;2022-08-24T04:51:08;101992.44;;;22.52;90.40
29505;BME280;16452;54.174;12.092;2022-08-24T04:53:35;101986.47;;;22.60;90.78
29505;BME280;16452;54.174;12.092;2022-08-24T04:56:02;101987.91;;;22.75;89.90
29505;BME280;16452;54.174;12.092;2022-08-24T04:58:29;101987.53;;;22.69;90.58
29505;BME280;16452;54.174;12.092;2022-08-24T05:00:55;101985.28;;;22.85;89.61
29505;BME280;16452;54.174;12.092;2022-08-24T05:03:22;101985.16;;;23.07;88.52
29505;BME280;16452;54.174;12.092;2022-08-24T05:05:49;101981.13;;;23.13;88.18
29505;BME280;16452;54.174;12.092;2022-08-24T05:08:17;101980.00;;;23.06;88.28
29505;BME280;16452;54.174;12.092;2022-08-24T05:10:46;101982.50;;;23.07;88.62
29505;BME280;16452;54.174;12.092;2022-08-24T05:13:13;101991.41;;;23.17;87.55
29505;BME280;16452;54.174;12.092;2022-08-24T05:15:42;102003.13;;;23.15;88.10
29505;BME280;16452;54.174;12.092;2022-08-24T05:18:08;101993.06;;;23.18;87.64
29505;BME280;16452;54.174;12.092;2022-08-24T05:20:34;101998.00;;;23.23;87.20
29505;BME280;16452;54.174;12.092;2022-08-24T05:23:01;101996.50;;;23.09;87.95
29505;BME280;16452;54.174;12.092;2022-08-24T05:25:27;102008.97;;;23.60;86.81
29505;BME280;16452;54.174;12.092;2022-08-24T05:27:53;102001.22;;;24.27;84.73
29505;BME280;16452;54.174;12.092;2022-08-24T05:30:19;102006.00;;;25.01;81.43
29505;BME280;16452;54.174;12.092;2022-08-24T05:32:45;102017.06;;;25.15;79.09
29505;BME280;16452;54.174;12.092;2022-08-24T05:35:11;102014.81;;;25.11;79.00
29505;BME280;16452;54.174;12.092;2022-08-24T05:37:38;102014.69;;;24.74;80.65
29505;BME280;16452;54.174;12.092;2022-08-24T05:40:07;102019.50;;;24.01;83.36
29505;BME280;16452;54.174;12.092;2022-08-24T05:42:35;102021.25;;;24.22;83.61
29505;BME280;16452;54.174;12.092;2022-08-24T05:45:00;102022.38;;;24.29;83.22
29505;BME280;16452;54.174;12.092;2022-08-24T05:47:26;102026.75;;;24.39;82.29
29505;BME280;16452;54.174;12.092;2022-08-24T05:49:52;102029.28;;;24.50;82.90
29505;BME280;16452;54.174;12.092;2022-08-24T05:52:22;102023.56;;;25.40;79.52
29505;BME280;16452;54.174;12.092;2022-08-24T05:54:53;102026.47;;;25.93;76.47
29505;BME280;16452;54.174;12.092;2022-08-24T05:57:20;102035.38;;;26.11;75.09
29505;BME280;16452;54.174;12.092;2022-08-24T05:59:47;102033.69;;;26.73;73.21
29505;BME280;16452;54.174;12.092;2022-08-24T06:02:13;102040.91;;;27.16;71.98
29505;BME280;16452;54.174;12.092;2022-08-24T06:04:39;102032.25;;;27.22;70.82
29505;BME280;16452;54.174;12.092;2022-08-24T06:07:06;102029.63;;;27.56;70.65
29505;BME280;16452;54.174;12.092;2022-08-24T06:09:37;102030.09;;;27.26;71.03
29505;BME280;16452;54.174;12.092;2022-08-24T06:12:04;102035.97;;;27.04;72.15
29505;BME280;16452;54.174;12.092;2022-08-24T06:14:30;102029.78;;;27.03;71.11
29505;BME280;16452;54.174;12.092;2022-08-24T06:16:58;102042.25;;;27.20;72.16
29505;BME280;16452;54.174;12.092;2022-08-24T06:19:23;102046.22;;;27.08;70.63
29505;BME280;16452;54.174;12.092;2022-08-24T06:21:57;102048.09;;;27.16;71.99
29505;BME280;16452;54.174;12.092;2022-08-24T06:24:24;102039.38;;;26.88;72.34
29505;BME280;16452;54.174;12.092;2022-08-24T06:27:12;102047.59;;;26.77;72.60
29505;BME280;16452;54.174;12.092;2022-08-24T06:29:55;102050.66;;;26.64;73.94
29505;BME280;16452;54.174;12.092;2022-08-24T06:32:23;102038.81;;;26.67;74.02
29505;BME280;16452;54.174;12.092;2022-08-24T06:34:49;102050.88;;;26.71;74.11
29505;BME280;16452;54.174;12.092;2022-08-24T06:37:15;102053.03;;;26.85;74.27
29505;BME280;16452;54.174;12.092;2022-08-24T06:39:40;102051.78;;;26.97;73.68
29505;BME280;16452;54.174;12.092;2022-08-24T06:42:06;102051.88;;;26.70;73.58
29505;BME280;16452;54.174;12.092;2022-08-24T06:44:32;102056.53;;;26.68;74.16
29505;BME280;16452;54.174;12.092;2022-08-24T06:46:58;102058.94;;;26.88;73.67
29505;BME280;16452;54.174;12.092;2022-08-24T06:49:24;102059.28;;;27.11;72.49
29505;BME280;16452;54.174;12.092;2022-08-24T06:51:50;102062.31;;;27.16;73.20
29505;BME280;16452;54.174;12.092;2022-08-24T06:54:17;102061.28;;;26.91;74.27
29505;BME280;16452;54.174;12.092;2022-08-24T06:56:45;102069.28;;;26.74;74.50
29505;BME280;16452;54.174;12.092;2022-08-24T06:59:11;102071.47;;;27.31;73.37
29505;BME280;16452;54.174;12.092;2022-08-24T07:01:37;102073.97;;;27.33;73.10
29505;BME280;16452;54.174;12.092;2022-08-24T07:04:03;102073.25;;;27.49;72.04
29505;BME280;16452;54.174;12.092;2022-08-24T07:06:28;102070.56;;;27.23;73.39
29505;BME280;16452;54.174;12.092;2022-08-24T07:08:54;102078.44;;;27.24;72.89
29505;BME280;16452;54.174;12.092;2022-08-24T07:11:22;102080.03;;;27.61;71.99
29505;BME280;16452;54.174;12.092;2022-08-24T07:13:49;102075.94;;;27.05;73.38
29505;BME280;16452;54.174;12.092;2022-08-24T07:16:18;102071.63;;;27.82;73.40
29505;BME280;16452;54.174;12.092;2022-08-24T07:18:44;102068.75;;;27.75;72.14
29505;BME280;16452;54.174;12.092;2022-08-24T07:21:10;102078.44;;;28.10;70.91
29505;BME280;16452;54.174;12.092;2022-08-24T07:23:37;102067.84;;;28.00;70.44
29505;BME280;16452;54.174;12.092;2022-08-24T07:26:13;102077.44;;;28.11;71.39
29505;BME280;16452;54.174;12.092;2022-08-24T07:28:39;102064.50;;;27.64;73.33
29505;BME280;16452;54.174;12.092;2022-08-24T07:31:06;102066.63;;;27.53;74.32
29505;BME280;16452;54.174;12.092;2022-08-24T07:33:34;102075.34;;;27.11;75.62
29505;BME280;16452;54.174;12.092;2022-08-24T07:36:00;102072.91;;;27.26;74.25
29505;BME280;16452;54.174;12.092;2022-08-24T07:38:26;102067.13;;;27.56;73.71
29505;BME280;16452;54.174;12.092;2022-08-24T07:40:53;102066.81;;;27.59;73.47
29505;BME280;16452;54.174;12.092;2022-08-24T07:43:19;102073.03;;;27.60;73.17
29505;BME280;16452;54.174;12.092;2022-08-24T07:45:47;102071.84;;;27.62;72.91
29505;BME280;16452;54.174;12.092;2022-08-24T07:48:14;102068.66;;;27.59;73.36
29505;BME280;16452;54.174;12.092;2022-08-24T07:50:40;102066.56;;;27.27;74.12
29505;BME280;16452;54.174;12.092;2022-08-24T07:53:06;102068.84;;;27.14;74.42
29505;BME280;16452;54.174;12.092;2022-08-24T07:55:32;102071.91;;;27.01;74.75
29505;BME280;16452;54.174;12.092;2022-08-24T07:57:58;102074.44;;;26.67;76.09
29505;BME280;16452;54.174;12.092;2022-08-24T08:00:24;102070.81;;;26.58;76.75
29505;BME280;16452;54.174;12.092;2022-08-24T08:02:50;102077.75;;;26.51;76.80
29505;BME280;16452;54.174;12.092;2022-08-24T08:05:22;102080.31;;;27.06;75.50
29505;BME280;16452;54.174;12.092;2022-08-24T08:07:49;102079.06;;;27.18;75.77
29505;BME280;16452;54.174;12.092;2022-08-24T08:10:16;102078.53;;;27.15;75.20
29505;BME280;16452;54.174;12.092;2022-08-24T08:12:41;102082.03;;;27.15;75.19
29505;BME280;16452;54.174;12.092;2022-08-24T08:15:09;102069.72;;;27.66;74.34
29505;BME280;16452;54.174;12.092;2022-08-24T08:17:37;102069.06;;;27.72;73.79
29505;BME280;16452;54.174;12.092;2022-08-24T08:20:08;102075.63;;;27.77;73.42
29505;BME280;16452;54.174;12.092;2022-08-24T08:22:34;102080.00;;;27.53;74.39
29505;BME280;16452;54.174;12.092;2022-08-24T08:25:19;102085.94;;;26.68;77.00
29505;BME280;16452;54.174;12.092;2022-08-24T08:27:45;102085.53;;;26.90;77.17
29505;BME280;16452;54.174;12.092;2022-08-24T08:30:12;102084.34;;;27.10;75.81
29505;BME280;16452;54.174;12.092;2022-08-24T08:32:38;102089.56;;;26.94;76.89
29505;BME280;16452;54.174;12.092;2022-08-24T08:35:04;102080.56;;;26.95;77.92
29505;BME280;16452;54.174;12.092;2022-08-24T08:37:30;102083.91;;;26.62;78.45
29505;BME280;16452;54.174;12.092;2022-08-24T08:39:56;102088.88;;;26.92;77.63
29505;BME280;16452;54.174;12.092;2022-08-24T08:42:55;102077.34;;;27.35;76.10
29505;BME280;16452;54.174;12.092;2022-08-24T08:46:05;102076.47;;;27.52;75.37
29505;BME280;16452;54.174;12.092;2022-08-24T09:00:23;102082.59;;;27.45;76.60
29505;BME280;16452;54.174;12.092;2022-08-24T09:03:19;102079.53;;;27.57;75.42
29505;BME280;16452;54.174;12.092;2022-08-24T09:05:56;102070.66;;;27.39;76.57
29505;BME280;16452;54.174;12.092;2022-08-24T09:08:26;102066.00;;;27.67;75.98
29505;BME280;16452;54.174;12.092;2022-08-24T09:14:04;102061.47;;;28.35;72.58
29505;BME280;16452;54.174;12.092;2022-08-24T09:16:49;102061.16;;;28.46;72.20
29505;BME280;16452;54.174;12.092;2022-08-24T09:22:44;102068.06;;;28.65;72.14
29505;BME280;16452;54.174;12.092;2022-08-24T09:25:36;102067.19;;;28.56;71.67
29505;BME280;16452;54.174;12.092;2022-08-24T09:33:50;102069.75;;;29.15;68.24
29505;BME280;16452;54.174;12.092;2022-08-24T09:36:46;102072.13;;;28.93;70.41
29505;BME280;16452;54.174;12.092;2022-08-24T09:43:05;102076.97;;;28.98;70.98
29505;BME280;16452;54.174;12.092;2022-08-24T09:52:03;102072.59;;;29.21;70.44
29505;BME280;16452;54.174;12.092;2022-08-24T10:01:07;102064.56;;;29.05;69.97
29505;BME280;16452;54.174;12.092;2022-08-24T10:07:20;102063.38;;;28.83;70.07
29505;BME280;16452;54.174;12.092;2022-08-24T10:13:04;102063.97;;;28.37;71.88
29505;BME280;16452;54.174;12.092;2022-08-24T10:22:18;102057.19;;;28.91;69.49
29505;BME280;16452;54.174;12.092;2022-08-24T10:27:46;102050.25;;;28.40;71.21
29505;BME280;16452;54.174;12.092;2022-08-24T10:31:02;102050.59;;;28.69;71.43
29505;BME280;16452;54.174;12.092;2022-08-24T10:33:59;102041.22;;;28.57;71.70
29505;BME280;16452;54.174;12.092;2022-08-24T10:36:43;102041.38;;;28.55;71.51
29505;BME280;16452;54.174;12.092;2022-08-24T10:39:38;102030.63;;;28.55;71.02
29505;BME280;16452;54.174;12.092;2022-08-24T10:49:26;102042.09;;;28.74;72.36
29505;BME280;16452;54.174;12.092;2022-08-24T10:54:36;102048.59;;;28.47;74.25
29505;BME280;16452;54.174;12.092;2022-08-24T10:57:29;102054.00;;;28.79;73.47
29505;BME280;16452;54.174;12.092;2022-08-24T11:00:17;102059.34;;;28.79;73.03
29505;BME280;16452;54.174;12.092;2022-08-24T11:02:48;102049.03;;;28.26;75.11
29505;BME280;16452;54.174;12.092;2022-08-24T11:05:29;102052.44;;;28.69;72.69
29505;BME280;16452;54.174;12.092;2022-08-24T11:08:03;102040.31;;;28.24;74.34
29505;BME280;16452;54.174;12.092;2022-08-24T11:10:35;102045.66;;;28.16;74.16
29505;BME280;16452;54.174;12.092;2022-08-24T11:13:34;102038.84;;;28.54;72.12
29505;BME280;16452;54.174;12.092;2022-08-24T11:16:03;102041.41;;;28.05;74.99
29505;BME280;16452;54.174;12.092;2022-08-24T11:18:50;102044.53;;;28.35;73.39
29505;BME280;16452;54.174;12.092;2022-08-24T11:27:01;102033.41;;;28.13;73.14
29505;BME280;16452;54.174;12.092;2022-08-24T11:32:53;102036.63;;;28.17;73.54
29505;BME280;16452;54.174;12.092;2022-08-24T11:38:16;102033.22;;;27.65;74.40
29505;BME280;16452;54.174;12.092;2022-08-24T11:41:01;102035.28;;;27.27;76.29
29505;BME280;16452;54.174;12.092;2022-08-24T11:43:55;102038.84;;;27.54;75.13
29505;BME280;16452;54.174;12.092;2022-08-24T11:46:34;102042.06;;;27.39;76.73
29505;BME280;16452;54.174;12.092;2022-08-24T11:49:06;102033.88;;;27.67;75.62
29505;BME280;16452;54.174;12.092;2022-08-24T11:51:58;102030.38;;;27.66;75.11
29505;BME280;16452;54.174;12.092;2022-08-24T12:00:06;102033.81;;;27.33;76.67
29505;BME280;16452;54.174;12.092;2022-08-24T12:03:17;102041.53;;;27.62;75.12
29505;BME280;16452;54.174;12.092;2022-08-24T12:05:57;102043.72;;;27.15;75.43
29505;BME280;16452;54.174;12.092;2022-08-24T12:11:49;102043.69;;;27.32;76.47
29505;BME280;16452;54.174;12.092;2022-08-24T12:17:39;102046.06;;;27.35;76.68
29505;BME280;16452;54.174;12.092;2022-08-24T12:23:08;102044.53;;;27.33;75.52
29505;BME280;16452;54.174;12.092;2022-08-24T12:25:36;102038.66;;;27.29;75.42
29505;BME280;16452;54.174;12.092;2022-08-24T12:28:34;102036.88;;;27.64;74.93
29505;BME280;16452;54.174;12.092;2022-08-24T12:31:10;102038.44;;;27.74;73.35
29505;BME280;16452;54.174;12.092;2022-08-24T12:33:39;102033.34;;;27.63;73.95
29505;BME280;16452;54.174;12.092;2022-08-24T12:36:20;102029.34;;;27.67;73.47
29505;BME280;16452;54.174;12.092;2022-08-24T12:39:03;102036.84;;;27.38;73.77
29505;BME280;16452;54.174;12.092;2022-08-24T12:41:35;102030.38;;;27.41;73.95
29505;BME280;16452;54.174;12.092;2022-08-24T12:44:12;102032.97;;;27.32;74.76
29505;BME280;16452;54.174;12.092;2022-08-24T12:46:40;102029.09;;;27.27;75.13
29505;BME280;16452;54.174;12.092;2022-08-24T12:49:26;102026.84;;;27.40;74.73
29505;BME280;16452;54.174;12.092;2022-08-24T12:52:32;102038.13;;;27.26;75.33
29505;BME280;16452;54.174;12.092;2022-08-24T12:55:21;102025.00;;;27.41;74.73
29505;BME280;16452;54.174;12.092;2022-08-24T13:01:05;102037.25;;;27.17;74.33
29505;BME280;16452;54.174;12.092;2022-08-24T13:03:34;102029.09;;;27.27;74.98
29505;BME280;16452;54.174;12.092;2022-08-24T13:06:24;102033.09;;;27.23;75.13
29505;BME280;16452;54.174;12.092;2022-08-24T13:08:52;102035.38;;;26.92;76.13
29505;BME280;16452;54.174;12.092;2022-08-24T13:11:31;102034.59;;;26.82;77.02
29505;BME280;16452;54.174;12.092;2022-08-24T13:14:26;102035.31;;;27.02;75.69
29505;BME280;16452;54.174;12.092;2022-08-24T13:21:53;102030.63;;;26.68;77.21
29505;BME280;16452;54.174;12.092;2022-08-24T13:30:02;102017.81;;;27.41;73.74
29505;BME280;16452;54.174;12.092;2022-08-24T13:32:42;102011.34;;;27.26;74.63
29505;BME280;16452;54.174;12.092;2022-08-24T13:35:35;102020.91;;;27.28;74.46
29505;BME280;16452;54.174;12.092;2022-08-24T13:41:14;102022.75;;;27.02;73.52
29505;BME280;16452;54.174;12.092;2022-08-24T13:46:40;102008.31;;;27.81;72.11
29505;BME280;16452;54.174;12.092;2022-08-24T13:54:40;102009.16;;;27.47;73.99
29505;BME280;16452;54.174;12.092;2022-08-24T14:12:59;102006.72;;;27.54;74.92
29505;BME280;16452;54.174;12.092;2022-08-24T14:16:27;102005.47;;;27.48;74.85
29505;BME280;16452;54.174;12.092;2022-08-24T14:25:26;102009.72;;;27.33;75.26
29505;BME280;16452;54.174;12.092;2022-08-24T14:33:06;102004.13;;;27.78;72.70
29505;BME280;16452;54.174;12.092;2022-08-24T14:38:55;101991.47;;;28.04;71.66
29505;BME280;16452;54.174;12.092;2022-08-24T14:41:45;102005.88;;;27.61;73.18
29505;BME280;16452;54.174;12.092;2022-08-24T14:44:28;102003.25;;;27.44;74.49
29505;BME280;16452;54.174;12.092;2022-08-24T14:53:31;101994.22;;;27.45;73.15
29505;BME280;16452;54.174;12.092;2022-08-24T14:56:49;101997.13;;;27.51;73.23
29505;BME280;16452;54.174;12.092;2022-08-24T15:07:58;101979.78;;;27.04;74.49
29505;BME280;16452;54.174;12.092;2022-08-24T15:13:42;101971.03;;;28.03;72.13
29505;BME280;16452;54.174;12.092;2022-08-24T15:27:47;101980.28;;;27.59;74.83
29505;BME280;16452;54.174;12.092;2022-08-24T15:30:29;101984.22;;;27.47;75.12
29505;BME280;16452;54.174;12.092;2022-08-24T15:33:16;101982.13;;;27.58;74.43
29505;BME280;16452;54.174;12.092;2022-08-24T15:35:47;101975.97;;;27.40;74.98
29505;BME280;16452;54.174;12.092;2022-08-24T15:38:31;101988.03;;;27.44;75.53
29505;BME280;16452;54.174;12.092;2022-08-24T15:43:59;101978.91;;;26.95;76.98
29505;BME280;16452;54.174;12.092;2022-08-24T15:46:37;101977.78;;;27.31;75.98
29505;BME280;16452;54.174;12.092;2022-08-24T15:51:49;101981.25;;;26.98;77.52
29505;BME280;16452;54.174;12.092;2022-08-24T15:57:29;101984.41;;;26.93;78.17
29505;BME280;16452;54.174;12.092;2022-08-24T16:00:16;101976.25;;;27.29;76.55
29505;BME280;16452;54.174;12.092;2022-08-24T16:12:03;101980.25;;;27.25;76.59
29505;BME280;16452;54.174;12.092;2022-08-24T16:14:41;101983.31;;;27.38;76.33
29505;BME280;16452;54.174;12.092;2022-08-24T16:17:28;101983.69;;;27.43;76.10
29505;BME280;16452;54.174;12.092;2022-08-24T16:20:10;101986.97;;;26.85;78.55
29505;BME280;16452;54.174;12.092;2022-08-24T16:22:49;101989.03;;;26.74;78.96
29505;BME280;16452;54.174;12.092;2022-08-24T16:25:24;101985.25;;;26.76;78.17